sensor_id;sensor_type;location;lat;lon;timestamp;pressure;altitude;pressure_sealevel;temperature;humidity
61119;BME280;51448;51.660;5.824;2023-07-02T00:00:14;100598.44;;;17.76;96.56
61119;BME280;51448;51.660;5.824;2023-07-02T00:02:42;100600.44;;;17.73;96.68
61119;BME280;51448;51.660;5.824;2023-07-02T00:05:09;100589.88;;;17.71;96.52
61119;BME280;51448;51.660;5.824;2023-07-02T00:07:37;100580.28;;;17.68;96.58
61119;BME280;51448;51.660;5.824;2023-07-02T00:10:05;100583.81;;;17.69;96.49
61119;BME280;51448;51.660;5.824;2023-07-02T00:12:33;100577.72;;;17.67;96.47
61119;BME280;51448;51.660;5.824;2023-07-02T00:15:00;100574.38;;;17.63;96.25
61119;BME280;51448;51.660;5.824;2023-07-02T00:17:28;100578.84;;;17.63;96.39
61119;BME280;51448;51.660;5.824;2023-07-02T00:19:57;100568.31;;;17.61;96.34
61119;BME280;51448;51.660;5.824;2023-07-02T00:22:24;100566.63;;;17.60;96.25
61119;BME280;51448;51.660;5.824;2023-07-02T00:24:52;100552.56;;;17.58;96.14
61119;BME280;51448;51.660;5.824;2023-07-02T00:27:23;100552.66;;;17.57;96.42
61119;BME280;51448;51.660;5.824;2023-07-02T00:29:50;100532.44;;;17.54;96.34
61119;BME280;51448;51.660;5.824;2023-07-02T00:32:18;100526.16;;;17.55;96.73
61119;BME280;51448;51.660;5.824;2023-07-02T00:34:46;100530.63;;;17.55;96.45
61119;BME280;51448;51.660;5.824;2023-07-02T00:37:13;100536.13;;;17.52;96.51
61119;BME280;51448;51.660;5.824;2023-07-02T00:39:42;100541.63;;;17.48;96.47
61119;BME280;51448;51.660;5.824;2023-07-02T00:42:10;100555.00;;;17.47;96.37
61119;BME280;51448;51.660;5.824;2023-07-02T00:44:39;100553.41;;;17.44;96.66
61119;BME280;51448;51.660;5.824;2023-07-02T00:47:08;100562.34;;;17.43;96.61
61119;BME280;51448;51.660;5.824;2023-07-02T00:49:36;100564.13;;;17.43;96.55
61119;BME280;51448;51.660;5.824;2023-07-02T00:52:04;100580.06;;;17.43;96.45
61119;BME280;51448;51.660;5.824;2023-07-02T00:54:32;100589.78;;;17.44;96.55
61119;BME280;51448;51.660;5.824;2023-07-02T00:57:00;100588.94;;;17.43;96.51
61119;BME280;51448;51.660;5.824;2023-07-02T00:59:31;100587.03;;;17.45;96.31
61119;BME280;51448;51.660;5.824;2023-07-02T01:02:03;100592.44;;;17.44;96.33
61119;BME280;51448;51.660;5.824;2023-07-02T01:04:32;100589.78;;;17.44;96.04
61119;BME280;51448;51.660;5.824;2023-07-02T01:07:00;100590.72;;;17.43;96.07
61119;BME280;51448;51.660;5.824;2023-07-02T01:09:27;100594.31;;;17.42;96.24
61119;BME280;51448;51.660;5.824;2023-07-02T01:12:00;100589.00;;;17.42;96.18
61119;BME280;51448;51.660;5.824;2023-07-02T01:14:33;100597.91;;;17.41;96.10
61119;BME280;51448;51.660;5.824;2023-07-02T01:17:09;100601.53;;;17.40;96.10
61119;BME280;51448;51.660;5.824;2023-07-02T01:19:50;100600.78;;;17.38;96.05
61119;BME280;51448;51.660;5.824;2023-07-02T01:22:22;100602.75;;;17.34;96.18
61119;BME280;51448;51.660;5.824;2023-07-02T01:24:52;100610.81;;;17.33;96.13
61119;BME280;51448;51.660;5.824;2023-07-02T01:27:21;100613.59;;;17.31;96.05
61119;BME280;51448;51.660;5.824;2023-07-02T01:29:52;100607.41;;;17.30;96.24
61119;BME280;51448;51.660;5.824;2023-07-02T01:32:21;100613.66;;;17.29;96.17
61119;BME280;51448;51.660;5.824;2023-07-02T01:34:50;100607.59;;;17.27;95.92
61119;BME280;51448;51.660;5.824;2023-07-02T01:37:20;100616.50;;;17.26;96.07
61119;BME280;51448;51.660;5.824;2023-07-02T01:39:48;100614.81;;;17.25;96.08
61119;BME280;51448;51.660;5.824;2023-07-02T01:42:17;100620.13;;;17.25;96.26
61119;BME280;51448;51.660;5.824;2023-07-02T01:44:48;100628.19;;;17.24;96.35
61119;BME280;51448;51.660;5.824;2023-07-02T01:47:18;100624.75;;;17.22;96.43
61119;BME280;51448;51.660;5.824;2023-07-02T01:49:47;100621.31;;;17.20;96.34
61119;BME280;51448;51.660;5.824;2023-07-02T01:52:15;100632.03;;;17.18;96.58
61119;BME280;51448;51.660;5.824;2023-07-02T01:54:43;100632.91;;;17.19;96.58
61119;BME280;51448;51.660;5.824;2023-07-02T01:57:11;100641.81;;;17.18;96.39
61119;BME280;51448;51.660;5.824;2023-07-02T01:59:39;100641.91;;;17.16;96.10
61119;BME280;51448;51.660;5.824;2023-07-02T02:02:06;100643.78;;;17.14;95.91
61119;BME280;51448;51.660;5.824;2023-07-02T02:04:36;100645.59;;;17.14;95.73
61119;BME280;51448;51.660;5.824;2023-07-02T02:07:03;100639.53;;;17.12;95.36
61119;BME280;51448;51.660;5.824;2023-07-02T02:09:32;100636.09;;;17.09;95.31
61119;BME280;51448;51.660;5.824;2023-07-02T02:12:00;100633.63;;;17.06;95.56
61119;BME280;51448;51.660;5.824;2023-07-02T02:14:27;100632.00;;;17.04;95.56
61119;BME280;51448;51.660;5.824;2023-07-02T02:16:55;100635.78;;;17.00;95.30
61119;BME280;51448;51.660;5.824;2023-07-02T02:19:23;100627.22;;;16.95;95.62
61119;BME280;51448;51.660;5.824;2023-07-02T02:21:50;100632.72;;;16.92;95.75
61119;BME280;51448;51.660;5.824;2023-07-02T02:24:18;100632.91;;;16.88;95.90
61119;BME280;51448;51.660;5.824;2023-07-02T02:26:45;100632.22;;;16.85;96.09
61119;BME280;51448;51.660;5.824;2023-07-02T02:29:13;100642.16;;;16.81;96.45
61119;BME280;51448;51.660;5.824;2023-07-02T02:31:40;100640.50;;;16.79;96.66
61119;BME280;51448;51.660;5.824;2023-07-02T02:34:11;100632.59;;;16.77;96.95
61119;BME280;51448;51.660;5.824;2023-07-02T02:36:38;100642.47;;;16.75;97.21
61119;BME280;51448;51.660;5.824;2023-07-02T02:39:06;100645.22;;;16.74;97.36
61119;BME280;51448;51.660;5.824;2023-07-02T02:41:33;100640.06;;;16.70;97.59
61119;BME280;51448;51.660;5.824;2023-07-02T02:44:01;100640.25;;;16.67;97.80
61119;BME280;51448;51.660;5.824;2023-07-02T02:46:28;100639.56;;;16.64;97.80
61119;BME280;51448;51.660;5.824;2023-07-02T02:48:56;100648.56;;;16.61;98.06
61119;BME280;51448;51.660;5.824;2023-07-02T02:51:25;100642.56;;;16.58;98.26
61119;BME280;51448;51.660;5.824;2023-07-02T02:53:53;100650.63;;;16.56;98.46
61119;BME280;51448;51.660;5.824;2023-07-02T02:56:20;100646.34;;;16.54;98.60
61119;BME280;51448;51.660;5.824;2023-07-02T02:58:48;100649.00;;;16.54;98.80
61119;BME280;51448;51.660;5.824;2023-07-02T03:01:15;100652.59;;;16.53;98.85
61119;BME280;51448;51.660;5.824;2023-07-02T03:03:43;100656.19;;;16.52;99.24
61119;BME280;51448;51.660;5.824;2023-07-02T03:06:14;100653.63;;;16.50;98.97
61119;BME280;51448;51.660;5.824;2023-07-02T03:08:42;100659.97;;;16.47;99.22
61119;BME280;51448;51.660;5.824;2023-07-02T03:11:10;100654.81;;;16.44;99.35
61119;BME280;51448;51.660;5.824;2023-07-02T03:13:38;100662.00;;;16.42;99.27
61119;BME280;51448;51.660;5.824;2023-07-02T03:16:05;100666.63;;;16.39;99.40
61119;BME280;51448;51.660;5.824;2023-07-02T03:18:33;100667.75;;;16.35;99.41
61119;BME280;51448;51.660;5.824;2023-07-02T03:21:01;100671.50;;;16.31;99.70
61119;BME280;51448;51.660;5.824;2023-07-02T03:23:29;100677.03;;;16.26;99.49
61119;BME280;51448;51.660;5.824;2023-07-02T03:25:56;100686.13;;;16.22;99.88
61119;BME280;51448;51.660;5.824;2023-07-02T03:28:24;100689.72;;;16.21;100.00
61119;BME280;51448;51.660;5.824;2023-07-02T03:30:51;100688.00;;;16.20;100.00
61119;BME280;51448;51.660;5.824;2023-07-02T03:33:19;100691.59;;;16.19;100.00
61119;BME280;51448;51.660;5.824;2023-07-02T03:35:46;100687.16;;;16.19;100.00
61119;BME280;51448;51.660;5.824;2023-07-02T03:38:14;100695.19;;;16.18;100.00
61119;BME280;51448;51.660;5.824;2023-07-02T03:40:42;100689.88;;;16.18;99.98
61119;BME280;51448;51.660;5.824;2023-07-02T03:43:10;100695.34;;;16.15;99.93
61119;BME280;51448;51.660;5.824;2023-07-02T03:45:38;100699.88;;;16.13;99.81
61119;BME280;51448;51.660;5.824;2023-07-02T03:48:05;100696.38;;;16.12;99.96
61119;BME280;51448;51.660;5.824;2023-07-02T03:50:33;100698.16;;;16.12;99.80
61119;BME280;51448;51.660;5.824;2023-07-02T03:53:01;100703.56;;;16.10;99.93
61119;BME280;51448;51.660;5.824;2023-07-02T03:55:28;100701.00;;;16.08;99.86
61119;BME280;51448;51.660;5.824;2023-07-02T03:57:56;100709.88;;;16.07;99.83
61119;BME280;51448;51.660;5.824;2023-07-02T04:00:23;100706.44;;;16.05;99.65
61119;BME280;51448;51.660;5.824;2023-07-02T04:02:51;100717.22;;;16.02;99.90
61119;BME280;51448;51.660;5.824;2023-07-02T04:05:19;100723.47;;;16.01;100.00
61119;BME280;51448;51.660;5.824;2023-07-02T04:07:47;100718.25;;;16.00;100.00
61119;BME280;51448;51.660;5.824;2023-07-02T04:10:15;100717.38;;;15.99;100.00
61119;BME280;51448;51.660;5.824;2023-07-02T04:12:42;100722.69;;;15.99;100.00
61119;BME280;51448;51.660;5.824;2023-07-02T04:15:10;100716.44;;;16.00;100.00
61119;BME280;51448;51.660;5.824;2023-07-02T04:17:38;100718.16;;;16.01;100.00
61119;BME280;51448;51.660;5.824;2023-07-02T04:20:06;100722.53;;;16.02;100.00
61119;BME280;51448;51.660;5.824;2023-07-02T04:22:35;100714.66;;;16.01;100.00
61119;BME280;51448;51.660;5.824;2023-07-02T04:25:02;100725.25;;;16.01;100.00
61119;BME280;51448;51.660;5.824;2023-07-02T04:27:50;100720.03;;;15.99;100.00
61119;BME280;51448;51.660;5.824;2023-07-02T04:30:18;100717.38;;;15.99;100.00
61119;BME280;51448;51.660;5.824;2023-07-02T04:32:46;100723.56;;;16.00;100.00
61119;BME280;51448;51.660;5.824;2023-07-02T04:35:14;100730.63;;;15.99;99.95
61119;BME280;51448;51.660;5.824;2023-07-02T04:37:42;100728.88;;;16.00;100.00
61119;BME280;51448;51.660;5.824;2023-07-02T04:40:09;100730.56;;;16.01;99.99
61119;BME280;51448;51.660;5.824;2023-07-02T04:42:39;100742.91;;;16.02;99.98
61119;BME280;51448;51.660;5.824;2023-07-02T04:45:14;100742.97;;;16.00;99.85
61119;BME280;51448;51.660;5.824;2023-07-02T04:47:45;100742.03;;;16.01;99.85
61119;BME280;51448;51.660;5.824;2023-07-02T04:50:13;100742.47;;;16.09;99.94
61119;BME280;51448;51.660;5.824;2023-07-02T04:52:40;100751.34;;;16.26;100.00
61119;BME280;51448;51.660;5.824;2023-07-02T04:55:09;100750.63;;;16.40;99.82
61119;BME280;51448;51.660;5.824;2023-07-02T04:57:37;100745.84;;;16.46;98.98
61119;BME280;51448;51.660;5.824;2023-07-02T05:00:05;100744.56;;;16.54;98.40
61119;BME280;51448;51.660;5.824;2023-07-02T05:02:33;100749.69;;;16.57;98.04
61119;BME280;51448;51.660;5.824;2023-07-02T05:05:01;100752.13;;;16.61;97.32
61119;BME280;51448;51.660;5.824;2023-07-02T05:07:28;100751.59;;;16.70;97.12
61119;BME280;51448;51.660;5.824;2023-07-02T05:09:56;100751.13;;;16.80;96.60
61119;BME280;51448;51.660;5.824;2023-07-02T05:12:23;100748.47;;;16.80;96.48
61119;BME280;51448;51.660;5.824;2023-07-02T05:14:51;100759.94;;;16.80;95.91
61119;BME280;51448;51.660;5.824;2023-07-02T05:17:19;100752.84;;;16.81;96.16
61119;BME280;51448;51.660;5.824;2023-07-02T05:19:46;100760.84;;;16.79;96.07
61119;BME280;51448;51.660;5.824;2023-07-02T05:22:14;100758.16;;;16.81;95.78
61119;BME280;51448;51.660;5.824;2023-07-02T05:24:43;100759.00;;;16.81;95.43
61119;BME280;51448;51.660;5.824;2023-07-02T05:27:11;100763.41;;;16.82;95.22
61119;BME280;51448;51.660;5.824;2023-07-02T05:29:38;100773.06;;;16.83;94.76
61119;BME280;51448;51.660;5.824;2023-07-02T05:32:06;100769.63;;;16.81;94.35
61119;BME280;51448;51.660;5.824;2023-07-02T05:34:34;100771.47;;;16.79;93.89
61119;BME280;51448;51.660;5.824;2023-07-02T05:37:02;100775.88;;;16.80;93.71
61119;BME280;51448;51.660;5.824;2023-07-02T05:39:29;100785.41;;;16.84;92.93
61119;BME280;51448;51.660;5.824;2023-07-02T05:41:57;100790.66;;;16.86;92.70
61119;BME280;51448;51.660;5.824;2023-07-02T05:44:25;100788.59;;;16.91;92.32
61119;BME280;51448;51.660;5.824;2023-07-02T05:46:52;100786.63;;;16.95;91.91
61119;BME280;51448;51.660;5.824;2023-07-02T05:49:20;100790.91;;;16.97;91.37
61119;BME280;51448;51.660;5.824;2023-07-02T05:51:48;100791.75;;;16.98;90.12
61119;BME280;51448;51.660;5.824;2023-07-02T05:54:15;100788.09;;;17.00;90.14
61119;BME280;51448;51.660;5.824;2023-07-02T05:56:43;100797.59;;;17.04;89.79
61119;BME280;51448;51.660;5.824;2023-07-02T05:59:10;100788.41;;;17.10;89.12
61119;BME280;51448;51.660;5.824;2023-07-02T06:01:39;100797.00;;;17.15;89.18
61119;BME280;51448;51.660;5.824;2023-07-02T06:04:09;100803.66;;;17.22;88.91
61119;BME280;51448;51.660;5.824;2023-07-02T06:06:38;100798.97;;;17.27;88.00
61119;BME280;51448;51.660;5.824;2023-07-02T06:09:06;100800.44;;;17.33;88.12
61119;BME280;51448;51.660;5.824;2023-07-02T06:11:33;100812.50;;;17.39;88.17
61119;BME280;51448;51.660;5.824;2023-07-02T06:14:02;100805.97;;;17.44;86.86
61119;BME280;51448;51.660;5.824;2023-07-02T06:16:29;100808.56;;;17.46;85.57
61119;BME280;51448;51.660;5.824;2023-07-02T06:18:57;100815.56;;;17.47;84.79
61119;BME280;51448;51.660;5.824;2023-07-02T06:21:24;100820.81;;;17.48;84.27
61119;BME280;51448;51.660;5.824;2023-07-02T06:23:57;100819.59;;;17.54;83.77
61119;BME280;51448;51.660;5.824;2023-07-02T06:26:29;100821.22;;;17.57;83.47
61119;BME280;51448;51.660;5.824;2023-07-02T06:28:57;100810.31;;;17.61;83.56
61119;BME280;51448;51.660;5.824;2023-07-02T06:31:25;100824.13;;;17.68;83.03
61119;BME280;51448;51.660;5.824;2023-07-02T06:33:53;100830.88;;;17.74;82.15
61119;BME280;51448;51.660;5.824;2023-07-02T06:36:21;100837.66;;;17.79;82.19
61119;BME280;51448;51.660;5.824;2023-07-02T06:38:48;100824.72;;;17.89;81.58
61119;BME280;51448;51.660;5.824;2023-07-02T06:41:16;100825.28;;;17.94;81.32
61119;BME280;51448;51.660;5.824;2023-07-02T06:43:43;100843.38;;;18.03;80.43
61119;BME280;51448;51.660;5.824;2023-07-02T06:46:12;100838.63;;;18.08;79.63
61119;BME280;51448;51.660;5.824;2023-07-02T06:48:39;100839.22;;;18.14;79.04
61119;BME280;51448;51.660;5.824;2023-07-02T06:51:07;100839.03;;;18.17;79.27
61119;BME280;51448;51.660;5.824;2023-07-02T06:53:36;100845.78;;;18.22;78.93
61119;BME280;51448;51.660;5.824;2023-07-02T06:56:04;100845.44;;;18.28;76.82
61119;BME280;51448;51.660;5.824;2023-07-02T06:58:32;100846.28;;;18.29;76.89
61119;BME280;51448;51.660;5.824;2023-07-02T07:00:59;100854.25;;;18.29;76.21
61119;BME280;51448;51.660;5.824;2023-07-02T07:03:27;100858.66;;;18.30;76.11
61119;BME280;51448;51.660;5.824;2023-07-02T07:05:55;100863.78;;;18.33;75.66
61119;BME280;51448;51.660;5.824;2023-07-02T07:08:22;100869.78;;;18.37;75.56
61119;BME280;51448;51.660;5.824;2023-07-02T07:10:50;100870.47;;;18.40;74.78
61119;BME280;51448;51.660;5.824;2023-07-02T07:13:18;100875.41;;;18.46;74.88
61119;BME280;51448;51.660;5.824;2023-07-02T07:15:46;100883.81;;;18.55;73.51
61119;BME280;51448;51.660;5.824;2023-07-02T07:18:14;100876.56;;;18.57;71.98
61119;BME280;51448;51.660;5.824;2023-07-02T07:20:42;100876.38;;;18.60;72.93
61119;BME280;51448;51.660;5.824;2023-07-02T07:23:09;100887.53;;;18.66;71.90
61119;BME280;51448;51.660;5.824;2023-07-02T07:25:37;100883.06;;;18.67;72.34
61119;BME280;51448;51.660;5.824;2023-07-02T07:28:05;100880.94;;;18.72;72.19
61119;BME280;51448;51.660;5.824;2023-07-02T07:30:32;100895.91;;;18.75;72.29
61119;BME280;51448;51.660;5.824;2023-07-02T07:33:00;100900.00;;;18.80;72.59
61119;BME280;51448;51.660;5.824;2023-07-02T07:35:27;100900.41;;;18.88;72.49
61119;BME280;51448;51.660;5.824;2023-07-02T07:37:55;100886.81;;;18.93;70.99
61119;BME280;51448;51.660;5.824;2023-07-02T07:40:22;100899.09;;;18.96;71.25
61119;BME280;51448;51.660;5.824;2023-07-02T07:42:50;100902.31;;;19.01;71.60
61119;BME280;51448;51.660;5.824;2023-07-02T07:45:17;100892.59;;;19.14;72.16
61119;BME280;51448;51.660;5.824;2023-07-02T07:47:45;100909.34;;;19.30;71.69
61119;BME280;51448;51.660;5.824;2023-07-02T07:50:13;100897.13;;;19.41;70.59
61119;BME280;51448;51.660;5.824;2023-07-02T07:52:41;100894.06;;;19.47;69.81
61119;BME280;51448;51.660;5.824;2023-07-02T07:55:10;100900.13;;;19.63;70.04
61119;BME280;51448;51.660;5.824;2023-07-02T07:57:38;100902.22;;;19.73;69.77
61119;BME280;51448;51.660;5.824;2023-07-02T08:00:06;100896.38;;;19.80;70.14
61119;BME280;51448;51.660;5.824;2023-07-02T08:02:46;100897.56;;;19.89;69.67
61119;BME280;51448;51.660;5.824;2023-07-02T08:05:14;100899.09;;;19.93;69.50
61119;BME280;51448;51.660;5.824;2023-07-02T08:07:47;100899.66;;;19.98;69.13
61119;BME280;51448;51.660;5.824;2023-07-02T08:10:15;100897.31;;;20.06;68.33
61119;BME280;51448;51.660;5.824;2023-07-02T08:12:43;100906.09;;;20.08;68.08
61119;BME280;51448;51.660;5.824;2023-07-02T08:15:10;100907.25;;;20.04;67.38
61119;BME280;51448;51.660;5.824;2023-07-02T08:17:38;100914.50;;;20.02;67.54
61119;BME280;51448;51.660;5.824;2023-07-02T08:20:05;100910.09;;;20.01;66.84
61119;BME280;51448;51.660;5.824;2023-07-02T08:22:40;100907.75;;;19.97;66.63
61119;BME280;51448;51.660;5.824;2023-07-02T08:25:08;100919.69;;;19.91;67.00
61119;BME280;51448;51.660;5.824;2023-07-02T08:27:36;100925.34;;;19.86;66.10
61119;BME280;51448;51.660;5.824;2023-07-02T08:30:04;100930.22;;;19.80;65.41
61119;BME280;51448;51.660;5.824;2023-07-02T08:32:32;100926.03;;;19.76;64.67
61119;BME280;51448;51.660;5.824;2023-07-02T08:35:01;100928.91;;;19.73;64.49
61119;BME280;51448;51.660;5.824;2023-07-02T08:37:28;100930.00;;;19.68;64.42
61119;BME280;51448;51.660;5.824;2023-07-02T08:39:56;100933.66;;;19.67;64.37
61119;BME280;51448;51.660;5.824;2023-07-02T08:42:24;100931.94;;;19.66;64.49
61119;BME280;51448;51.660;5.824;2023-07-02T08:44:59;100936.16;;;19.70;64.76
61119;BME280;51448;51.660;5.824;2023-07-02T08:47:29;100934.34;;;19.71;63.88
61119;BME280;51448;51.660;5.824;2023-07-02T08:49:57;100952.41;;;19.66;64.66
61119;BME280;51448;51.660;5.824;2023-07-02T08:52:25;100947.94;;;19.66;65.10
61119;BME280;51448;51.660;5.824;2023-07-02T08:54:52;100938.22;;;19.80;64.56
61119;BME280;51448;51.660;5.824;2023-07-02T08:57:20;100937.47;;;20.05;63.73
61119;BME280;51448;51.660;5.824;2023-07-02T08:59:48;100943.75;;;20.31;64.24
61119;BME280;51448;51.660;5.824;2023-07-02T09:02:29;100937.91;;;20.39;62.36
61119;BME280;51448;51.660;5.824;2023-07-02T09:05:02;100944.59;;;20.32;62.21
61119;BME280;51448;51.660;5.824;2023-07-02T09:07:31;100951.59;;;20.20;62.05
61119;BME280;51448;51.660;5.824;2023-07-02T09:09:58;100958.72;;;20.06;61.55
61119;BME280;51448;51.660;5.824;2023-07-02T09:12:30;100960.28;;;19.96;61.15
61119;BME280;51448;51.660;5.824;2023-07-02T09:15:00;100953.84;;;19.86;61.23
61119;BME280;51448;51.660;5.824;2023-07-02T09:17:32;100963.41;;;19.76;61.66
61119;BME280;51448;51.660;5.824;2023-07-02T09:20:01;100970.03;;;19.68;62.41
61119;BME280;51448;51.660;5.824;2023-07-02T09:22:34;100964.16;;;19.63;62.15
61119;BME280;51448;51.660;5.824;2023-07-02T09:25:03;100969.66;;;19.60;62.70
61119;BME280;51448;51.660;5.824;2023-07-02T09:27:35;100973.88;;;19.79;63.38
61119;BME280;51448;51.660;5.824;2023-07-02T09:30:08;100951.06;;;20.15;62.24
61119;BME280;51448;51.660;5.824;2023-07-02T09:32:39;100960.72;;;20.30;60.97
61119;BME280;51448;51.660;5.824;2023-07-02T09:35:07;100956.38;;;20.42;60.85
61119;BME280;51448;51.660;5.824;2023-07-02T09:37:34;100953.88;;;20.66;60.67
61119;BME280;51448;51.660;5.824;2023-07-02T09:40:02;100959.75;;;20.71;58.02
61119;BME280;51448;51.660;5.824;2023-07-02T09:42:34;100963.06;;;20.62;57.73
61119;BME280;51448;51.660;5.824;2023-07-02T09:45:03;100955.63;;;20.53;57.63
61119;BME280;51448;51.660;5.824;2023-07-02T09:47:38;100945.88;;;20.66;56.90
61119;BME280;51448;51.660;5.824;2023-07-02T09:50:14;100953.25;;;20.75;57.34
61119;BME280;51448;51.660;5.824;2023-07-02T09:52:46;100947.38;;;20.96;56.84
61119;BME280;51448;51.660;5.824;2023-07-02T09:55:15;100949.81;;;21.12;57.45
61119;BME280;51448;51.660;5.824;2023-07-02T09:57:45;100947.25;;;21.23;56.85
61119;BME280;51448;51.660;5.824;2023-07-02T10:00:14;100956.44;;;21.32;56.43
61119;BME280;51448;51.660;5.824;2023-07-02T10:02:48;100948.41;;;21.44;57.23
61119;BME280;51448;51.660;5.824;2023-07-02T10:07:57;100957.81;;;21.87;57.52
61119;BME280;51448;51.660;5.824;2023-07-02T10:10:30;100956.72;;;21.89;57.15
61119;BME280;51448;51.660;5.824;2023-07-02T10:12:58;100967.38;;;21.78;56.80
61119;BME280;51448;51.660;5.824;2023-07-02T10:15:29;100962.50;;;21.59;56.48
61119;BME280;51448;51.660;5.824;2023-07-02T10:18:05;100962.63;;;21.45;55.88
61119;BME280;51448;51.660;5.824;2023-07-02T10:20:39;100973.66;;;21.27;55.70
61119;BME280;51448;51.660;5.824;2023-07-02T10:23:09;100979.25;;;21.12;56.12
61119;BME280;51448;51.660;5.824;2023-07-02T10:25:37;100972.81;;;21.01;55.74
61119;BME280;51448;51.660;5.824;2023-07-02T10:28:20;100974.66;;;20.88;56.79
61119;BME280;51448;51.660;5.824;2023-07-02T10:30:53;100975.81;;;20.97;57.80
61119;BME280;51448;51.660;5.824;2023-07-02T10:33:23;100980.84;;;21.14;57.47
61119;BME280;51448;51.660;5.824;2023-07-02T10:35:51;100974.31;;;21.18;57.47
61119;BME280;51448;51.660;5.824;2023-07-02T10:38:21;100982.75;;;21.12;56.05
61119;BME280;51448;51.660;5.824;2023-07-02T10:40:58;100968.66;;;21.23;56.91
61119;BME280;51448;51.660;5.824;2023-07-02T10:43:32;100967.88;;;21.46;57.25
61119;BME280;51448;51.660;5.824;2023-07-02T10:46:00;100983.03;;;21.72;56.54
61119;BME280;51448;51.660;5.824;2023-07-02T10:48:29;100969.38;;;21.87;55.60
61119;BME280;51448;51.660;5.824;2023-07-02T10:50:57;100976.47;;;21.88;54.87
61119;BME280;51448;51.660;5.824;2023-07-02T10:53:24;100987.09;;;21.77;55.09
61119;BME280;51448;51.660;5.824;2023-07-02T10:55:56;100981.03;;;21.62;54.88
61119;BME280;51448;51.660;5.824;2023-07-02T10:58:25;100996.03;;;21.52;54.36
61119;BME280;51448;51.660;5.824;2023-07-02T11:00:53;100996.03;;;21.39;54.93
61119;BME280;51448;51.660;5.824;2023-07-02T11:03:23;100993.34;;;21.26;55.38
61119;BME280;51448;51.660;5.824;2023-07-02T11:05:53;100983.31;;;21.17;55.18
61119;BME280;51448;51.660;5.824;2023-07-02T11:08:22;100986.19;;;21.14;55.18
61119;BME280;51448;51.660;5.824;2023-07-02T11:10:51;100990.97;;;21.35;55.75
61119;BME280;51448;51.660;5.824;2023-07-02T11:13:32;100988.66;;;21.56;55.98
61119;BME280;51448;51.660;5.824;2023-07-02T11:16:00;100987.31;;;21.74;55.54
61119;BME280;51448;51.660;5.824;2023-07-02T11:18:30;100992.84;;;21.84;54.95
61119;BME280;51448;51.660;5.824;2023-07-02T11:21:09;100991.00;;;21.97;55.50
61119;BME280;51448;51.660;5.824;2023-07-02T11:23:38;100992.22;;;22.04;55.31
61119;BME280;51448;51.660;5.824;2023-07-02T11:26:05;100995.38;;;22.22;54.91
61119;BME280;51448;51.660;5.824;2023-07-02T11:28:33;101005.44;;;22.32;54.04
61119;BME280;51448;51.660;5.824;2023-07-02T11:31:04;100998.28;;;22.19;53.99
61119;BME280;51448;51.660;5.824;2023-07-02T11:33:36;100993.78;;;21.96;53.32
61119;BME280;51448;51.660;5.824;2023-07-02T11:36:08;101002.84;;;21.69;53.50
61119;BME280;51448;51.660;5.824;2023-07-02T11:38:49;101000.31;;;21.42;54.28
61119;BME280;51448;51.660;5.824;2023-07-02T11:41:18;101002.44;;;21.24;55.02
61119;BME280;51448;51.660;5.824;2023-07-02T11:43:48;100999.03;;;21.09;54.86
61119;BME280;51448;51.660;5.824;2023-07-02T11:46:19;101004.59;;;20.93;55.50
61119;BME280;51448;51.660;5.824;2023-07-02T11:48:46;100998.16;;;20.83;55.31
61119;BME280;51448;51.660;5.824;2023-07-02T11:51:14;100994.97;;;20.78;55.53
61119;BME280;51448;51.660;5.824;2023-07-02T11:53:41;100999.00;;;20.70;55.92
61119;BME280;51448;51.660;5.824;2023-07-02T11:56:09;100991.72;;;20.73;56.27
61119;BME280;51448;51.660;5.824;2023-07-02T11:58:37;100984.47;;;20.87;56.87
61119;BME280;51448;51.660;5.824;2023-07-02T12:01:05;100983.94;;;21.08;56.33
61119;BME280;51448;51.660;5.824;2023-07-02T12:03:33;100986.63;;;21.34;56.65
61119;BME280;51448;51.660;5.824;2023-07-02T12:06:00;100988.06;;;21.63;55.92
61119;BME280;51448;51.660;5.824;2023-07-02T12:08:28;100989.31;;;21.83;55.20
61119;BME280;51448;51.660;5.824;2023-07-02T12:10:55;100983.69;;;21.99;54.78
61119;BME280;51448;51.660;5.824;2023-07-02T12:13:23;100997.28;;;21.96;54.41
61119;BME280;51448;51.660;5.824;2023-07-02T12:15:50;100996.78;;;21.91;54.54
61119;BME280;51448;51.660;5.824;2023-07-02T12:18:19;100992.09;;;21.82;53.67
61119;BME280;51448;51.660;5.824;2023-07-02T12:20:46;101004.44;;;21.72;54.09
61119;BME280;51448;51.660;5.824;2023-07-02T12:23:14;101000.94;;;21.58;54.12
61119;BME280;51448;51.660;5.824;2023-07-02T12:25:41;101004.41;;;21.47;54.43
61119;BME280;51448;51.660;5.824;2023-07-02T12:28:10;101006.31;;;21.45;54.54
61119;BME280;51448;51.660;5.824;2023-07-02T12:30:40;100993.44;;;21.63;54.78
61119;BME280;51448;51.660;5.824;2023-07-02T12:33:07;100996.41;;;21.72;55.17
61119;BME280;51448;51.660;5.824;2023-07-02T12:35:35;101001.22;;;21.79;54.95
61119;BME280;51448;51.660;5.824;2023-07-02T12:38:02;100991.94;;;21.96;55.02
61119;BME280;51448;51.660;5.824;2023-07-02T12:40:31;101000.09;;;22.19;54.84
61119;BME280;51448;51.660;5.824;2023-07-02T12:42:58;100989.28;;;22.44;54.50
61119;BME280;51448;51.660;5.824;2023-07-02T12:45:26;100997.69;;;22.75;53.70
61119;BME280;51448;51.660;5.824;2023-07-02T12:47:53;101003.59;;;23.03;52.29
61119;BME280;51448;51.660;5.824;2023-07-02T12:50:21;100989.00;;;23.18;52.08
61119;BME280;51448;51.660;5.824;2023-07-02T12:52:49;100986.31;;;23.29;51.40
61119;BME280;51448;51.660;5.824;2023-07-02T12:55:16;100993.63;;;23.27;51.70
61119;BME280;51448;51.660;5.824;2023-07-02T12:57:44;100989.50;;;23.35;51.26
61119;BME280;51448;51.660;5.824;2023-07-02T13:00:12;101002.66;;;23.38;52.02